sensor_id;sensor_type;location;lat;lon;timestamp;P1;durP1;ratioP1;P2;durP2;ratioP2
63312;SDS011;49442;45.640;13.812;2023-06-19T00:01:47;6.80;;;5.30;;
63312;SDS011;49442;45.640;13.812;2023-06-19T00:04:13;6.10;;;5.20;;
63312;SDS011;49442;45.640;13.812;2023-06-19T00:06:39;9.85;;;5.82;;
63312;SDS011;49442;45.640;13.812;2023-06-19T00:09:06;12.48;;;5.35;;
63312;SDS011;49442;45.640;13.812;2023-06-19T00:11:32;7.18;;;5.45;;
63312;SDS011;49442;45.640;13.812;2023-06-19T00:13:57;8.43;;;5.45;;
63312;SDS011;49442;45.640;13.812;2023-06-19T00:16:23;7.97;;;5.18;;
63312;SDS011;49442;45.640;13.812;2023-06-19T00:18:50;7.25;;;5.15;;
63312;SDS011;49442;45.640;13.812;2023-06-19T00:21:20;6.30;;;4.88;;
63312;SDS011;49442;45.640;13.812;2023-06-19T00:23:50;7.72;;;5.30;;
63312;SDS011;49442;45.640;13.812;2023-06-19T00:26:16;9.50;;;5.00;;
63312;SDS011;49442;45.640;13.812;2023-06-19T00:28:42;7.28;;;5.22;;
63312;SDS011;49442;45.640;13.812;2023-06-19T00:31:10;7.47;;;4.95;;
63312;SDS011;49442;45.640;13.812;2023-06-19T00:33:39;7.72;;;4.97;;
63312;SDS011;49442;45.640;13.812;2023-06-19T00:36:09;7.13;;;5.03;;
63312;SDS011;49442;45.640;13.812;2023-06-19T00:38:35;9.55;;;5.07;;
63312;SDS011;49442;45.640;13.812;2023-06-19T00:41:01;7.32;;;5.35;;
63312;SDS011;49442;45.640;13.812;2023-06-19T00:43:28;6.07;;;4.78;;
63312;SDS011;49442;45.640;13.812;2023-06-19T00:45:54;7.03;;;4.80;;
63312;SDS011;49442;45.640;13.812;2023-06-19T00:48:22;8.10;;;4.80;;
63312;SDS011;49442;45.640;13.812;2023-06-19T00:50:48;10.23;;;4.72;;
63312;SDS011;49442;45.640;13.812;2023-06-19T00:53:15;5.55;;;4.65;;
63312;SDS011;49442;45.640;13.812;2023-06-19T00:55:41;8.00;;;4.68;;
63312;SDS011;49442;45.640;13.812;2023-06-19T00:58:08;6.18;;;5.05;;
63312;SDS011;49442;45.640;13.812;2023-06-19T01:00:35;6.57;;;5.28;;
63312;SDS011;49442;45.640;13.812;2023-06-19T01:03:00;6.90;;;5.07;;
63312;SDS011;49442;45.640;13.812;2023-06-19T01:05:26;11.13;;;5.30;;
63312;SDS011;49442;45.640;13.812;2023-06-19T01:07:55;8.15;;;5.03;;
63312;SDS011;49442;45.640;13.812;2023-06-19T01:10:24;6.82;;;4.75;;
63312;SDS011;49442;45.640;13.812;2023-06-19T01:12:56;6.95;;;5.00;;
63312;SDS011;49442;45.640;13.812;2023-06-19T01:15:26;8.73;;;4.97;;
63312;SDS011;49442;45.640;13.812;2023-06-19T01:17:53;8.65;;;5.43;;
63312;SDS011;49442;45.640;13.812;2023-06-19T01:20:21;6.50;;;5.03;;
63312;SDS011;49442;45.640;13.812;2023-06-19T01:22:47;7.40;;;5.05;;
63312;SDS011;49442;45.640;13.812;2023-06-19T01:25:12;9.02;;;5.10;;
63312;SDS011;49442;45.640;13.812;2023-06-19T01:27:39;9.48;;;5.75;;
63312;SDS011;49442;45.640;13.812;2023-06-19T01:30:06;8.60;;;4.90;;
63312;SDS011;49442;45.640;13.812;2023-06-19T01:32:38;6.57;;;5.10;;
63312;SDS011;49442;45.640;13.812;2023-06-19T01:35:08;9.23;;;5.18;;
63312;SDS011;49442;45.640;13.812;2023-06-19T01:37:36;8.30;;;4.65;;
63312;SDS011;49442;45.640;13.812;2023-06-19T01:40:03;8.57;;;4.35;;
63312;SDS011;49442;45.640;13.812;2023-06-19T01:42:34;7.32;;;4.78;;
63312;SDS011;49442;45.640;13.812;2023-06-19T01:45:02;8.90;;;5.00;;
63312;SDS011;49442;45.640;13.812;2023-06-19T01:47:29;5.93;;;4.63;;
63312;SDS011;49442;45.640;13.812;2023-06-19T01:49:55;6.20;;;4.53;;
63312;SDS011;49442;45.640;13.812;2023-06-19T01:52:20;6.85;;;4.88;;
63312;SDS011;49442;45.640;13.812;2023-06-19T01:54:46;7.68;;;5.10;;
63312;SDS011;49442;45.640;13.812;2023-06-19T01:57:12;5.38;;;4.38;;
63312;SDS011;49442;45.640;13.812;2023-06-19T01:59:38;6.75;;;4.45;;
63312;SDS011;49442;45.640;13.812;2023-06-19T02:02:03;6.07;;;4.55;;
63312;SDS011;49442;45.640;13.812;2023-06-19T02:04:31;8.63;;;4.57;;
63312;SDS011;49442;45.640;13.812;2023-06-19T02:06:57;5.68;;;4.15;;
63312;SDS011;49442;45.640;13.812;2023-06-19T02:09:23;7.30;;;4.97;;
63312;SDS011;49442;45.640;13.812;2023-06-19T02:11:48;9.30;;;4.95;;
63312;SDS011;49442;45.640;13.812;2023-06-19T02:14:14;5.40;;;4.15;;
63312;SDS011;49442;45.640;13.812;2023-06-19T02:16:40;6.07;;;4.43;;
63312;SDS011;49442;45.640;13.812;2023-06-19T02:19:10;7.20;;;4.82;;
63312;SDS011;49442;45.640;13.812;2023-06-19T02:21:36;8.93;;;4.43;;
63312;SDS011;49442;45.640;13.812;2023-06-19T02:24:02;7.47;;;4.47;;
63312;SDS011;49442;45.640;13.812;2023-06-19T02:26:29;8.45;;;4.60;;
63312;SDS011;49442;45.640;13.812;2023-06-19T02:28:55;8.88;;;4.68;;
63312;SDS011;49442;45.640;13.812;2023-06-19T02:31:21;6.38;;;4.80;;
63312;SDS011;49442;45.640;13.812;2023-06-19T02:33:47;8.68;;;4.65;;
63312;SDS011;49442;45.640;13.812;2023-06-19T02:36:13;7.70;;;5.13;;
63312;SDS011;49442;45.640;13.812;2023-06-19T02:38:48;7.88;;;5.15;;
63312;SDS011;49442;45.640;13.812;2023-06-19T02:41:14;7.57;;;4.38;;
63312;SDS011;49442;45.640;13.812;2023-06-19T02:43:40;6.22;;;4.85;;
63312;SDS011;49442;45.640;13.812;2023-06-19T02:46:07;6.65;;;4.45;;
63312;SDS011;49442;45.640;13.812;2023-06-19T02:48:33;7.40;;;4.13;;
63312;SDS011;49442;45.640;13.812;2023-06-19T02:50:58;10.85;;;4.60;;
63312;SDS011;49442;45.640;13.812;2023-06-19T02:53:24;5.55;;;4.05;;
63312;SDS011;49442;45.640;13.812;2023-06-19T02:55:50;6.13;;;4.35;;
63312;SDS011;49442;45.640;13.812;2023-06-19T02:58:15;7.50;;;4.28;;
63312;SDS011;49442;45.640;13.812;2023-06-19T03:00:41;5.60;;;4.15;;
63312;SDS011;49442;45.640;13.812;2023-06-19T03:03:07;5.25;;;4.43;;
63312;SDS011;49442;45.640;13.812;2023-06-19T03:05:33;8.82;;;4.72;;
63312;SDS011;49442;45.640;13.812;2023-06-19T03:07:58;5.95;;;4.20;;
63312;SDS011;49442;45.640;13.812;2023-06-19T03:10:24;6.95;;;4.55;;
63312;SDS011;49442;45.640;13.812;2023-06-19T03:12:50;6.55;;;4.50;;
63312;SDS011;49442;45.640;13.812;2023-06-19T03:15:15;6.15;;;4.70;;
63312;SDS011;49442;45.640;13.812;2023-06-19T03:17:41;6.40;;;4.45;;
63312;SDS011;49442;45.640;13.812;2023-06-19T03:20:07;6.53;;;5.07;;
63312;SDS011;49442;45.640;13.812;2023-06-19T03:22:36;6.30;;;4.20;;
63312;SDS011;49442;45.640;13.812;2023-06-19T03:25:06;8.30;;;4.50;;
63312;SDS011;49442;45.640;13.812;2023-06-19T03:27:32;5.95;;;4.35;;
63312;SDS011;49442;45.640;13.812;2023-06-19T03:29:58;5.07;;;4.07;;
63312;SDS011;49442;45.640;13.812;2023-06-19T03:32:24;10.75;;;4.70;;
63312;SDS011;49442;45.640;13.812;2023-06-19T03:34:49;6.75;;;4.70;;
63312;SDS011;49442;45.640;13.812;2023-06-19T03:37:15;5.22;;;4.28;;
63312;SDS011;49442;45.640;13.812;2023-06-19T03:39:41;8.20;;;4.47;;
63312;SDS011;49442;45.640;13.812;2023-06-19T03:42:07;5.90;;;4.28;;
63312;SDS011;49442;45.640;13.812;2023-06-19T03:44:33;6.90;;;4.60;;
63312;SDS011;49442;45.640;13.812;2023-06-19T03:46:59;6.00;;;4.32;;
63312;SDS011;49442;45.640;13.812;2023-06-19T03:49:25;6.65;;;4.60;;
63312;SDS011;49442;45.640;13.812;2023-06-19T03:51:51;6.13;;;4.60;;
63312;SDS011;49442;45.640;13.812;2023-06-19T03:54:19;8.32;;;4.47;;
63312;SDS011;49442;45.640;13.812;2023-06-19T03:56:45;7.45;;;4.85;;
63312;SDS011;49442;45.640;13.812;2023-06-19T03:59:11;7.07;;;4.55;;
63312;SDS011;49442;45.640;13.812;2023-06-19T04:01:36;6.60;;;4.32;;
63312;SDS011;49442;45.640;13.812;2023-06-19T04:04:02;7.80;;;4.95;;
63312;SDS011;49442;45.640;13.812;2023-06-19T04:06:28;7.85;;;3.78;;
63312;SDS011;49442;45.640;13.812;2023-06-19T04:08:53;11.02;;;4.50;;
63312;SDS011;49442;45.640;13.812;2023-06-19T04:11:19;7.13;;;4.55;;
63312;SDS011;49442;45.640;13.812;2023-06-19T04:13:45;7.10;;;4.70;;
63312;SDS011;49442;45.640;13.812;2023-06-19T04:16:12;9.13;;;4.72;;
63312;SDS011;49442;45.640;13.812;2023-06-19T04:18:37;6.30;;;4.25;;
63312;SDS011;49442;45.640;13.812;2023-06-19T04:21:03;6.47;;;4.60;;
63312;SDS011;49442;45.640;13.812;2023-06-19T04:23:29;5.93;;;4.35;;
63312;SDS011;49442;45.640;13.812;2023-06-19T04:25:54;7.47;;;4.57;;
63312;SDS011;49442;45.640;13.812;2023-06-19T04:28:20;6.43;;;4.57;;
63312;SDS011;49442;45.640;13.812;2023-06-19T04:30:46;6.05;;;4.57;;
63312;SDS011;49442;45.640;13.812;2023-06-19T04:33:11;7.65;;;5.10;;
63312;SDS011;49442;45.640;13.812;2023-06-19T04:35:37;6.40;;;4.47;;
63312;SDS011;49442;45.640;13.812;2023-06-19T04:38:08;10.05;;;4.47;;
63312;SDS011;49442;45.640;13.812;2023-06-19T04:40:34;7.15;;;5.03;;
63312;SDS011;49442;45.640;13.812;2023-06-19T04:43:03;5.80;;;4.60;;
63312;SDS011;49442;45.640;13.812;2023-06-19T04:45:30;7.72;;;5.25;;
63312;SDS011;49442;45.640;13.812;2023-06-19T04:47:56;10.57;;;4.60;;
63312;SDS011;49442;45.640;13.812;2023-06-19T04:50:22;7.30;;;4.50;;
63312;SDS011;49442;45.640;13.812;2023-06-19T04:52:48;6.60;;;4.75;;
63312;SDS011;49442;45.640;13.812;2023-06-19T04:55:15;6.13;;;4.22;;
63312;SDS011;49442;45.640;13.812;2023-06-19T04:57:41;6.80;;;4.70;;
63312;SDS011;49442;45.640;13.812;2023-06-19T05:00:07;9.38;;;5.05;;
63312;SDS011;49442;45.640;13.812;2023-06-19T05:02:35;7.22;;;4.43;;
63312;SDS011;49442;45.640;13.812;2023-06-19T05:05:01;7.05;;;4.53;;
63312;SDS011;49442;45.640;13.812;2023-06-19T05:07:31;6.78;;;4.25;;
63312;SDS011;49442;45.640;13.812;2023-06-19T05:09:57;10.18;;;5.05;;
63312;SDS011;49442;45.640;13.812;2023-06-19T05:12:23;18.58;;;5.63;;
63312;SDS011;49442;45.640;13.812;2023-06-19T05:14:49;9.52;;;4.40;;
63312;SDS011;49442;45.640;13.812;2023-06-19T05:17:15;10.32;;;5.15;;
63312;SDS011;49442;45.640;13.812;2023-06-19T05:19:41;9.05;;;4.55;;
63312;SDS011;49442;45.640;13.812;2023-06-19T05:22:06;10.25;;;4.72;;
63312;SDS011;49442;45.640;13.812;2023-06-19T05:24:32;16.55;;;4.80;;
63312;SDS011;49442;45.640;13.812;2023-06-19T05:26:58;22.38;;;5.35;;
63312;SDS011;49442;45.640;13.812;2023-06-19T05:29:24;19.55;;;4.95;;
63312;SDS011;49442;45.640;13.812;2023-06-19T05:31:50;25.80;;;5.70;;
63312;SDS011;49442;45.640;13.812;2023-06-19T05:34:16;7.97;;;5.07;;
63312;SDS011;49442;45.640;13.812;2023-06-19T05:36:42;10.45;;;5.07;;
63312;SDS011;49442;45.640;13.812;2023-06-19T05:39:10;6.03;;;4.45;;
63312;SDS011;49442;45.640;13.812;2023-06-19T05:41:36;6.35;;;4.47;;
63312;SDS011;49442;45.640;13.812;2023-06-19T05:44:01;8.18;;;4.57;;
63312;SDS011;49442;45.640;13.812;2023-06-19T05:46:27;9.55;;;4.90;;
63312;SDS011;49442;45.640;13.812;2023-06-19T05:48:53;6.60;;;4.90;;
63312;SDS011;49442;45.640;13.812;2023-06-19T05:51:19;6.43;;;4.85;;
63312;SDS011;49442;45.640;13.812;2023-06-19T05:53:45;8.02;;;4.70;;
63312;SDS011;49442;45.640;13.812;2023-06-19T05:56:11;7.45;;;4.70;;
63312;SDS011;49442;45.640;13.812;2023-06-19T05:58:37;8.95;;;5.20;;
63312;SDS011;49442;45.640;13.812;2023-06-19T06:01:04;8.75;;;4.78;;
63312;SDS011;49442;45.640;13.812;2023-06-19T06:03:30;5.85;;;4.55;;
63312;SDS011;49442;45.640;13.812;2023-06-19T06:05:55;8.23;;;4.28;;
63312;SDS011;49442;45.640;13.812;2023-06-19T06:08:29;12.82;;;5.05;;
63312;SDS011;49442;45.640;13.812;2023-06-19T06:10:55;16.70;;;6.32;;
63312;SDS011;49442;45.640;13.812;2023-06-19T06:13:21;22.25;;;5.95;;
63312;SDS011;49442;45.640;13.812;2023-06-19T06:15:47;21.67;;;5.93;;
63312;SDS011;49442;45.640;13.812;2023-06-19T06:18:13;11.13;;;4.72;;
63312;SDS011;49442;45.640;13.812;2023-06-19T06:20:38;13.18;;;4.80;;
63312;SDS011;49442;45.640;13.812;2023-06-19T06:23:04;7.95;;;4.78;;
63312;SDS011;49442;45.640;13.812;2023-06-19T06:25:30;11.82;;;5.13;;
63312;SDS011;49442;45.640;13.812;2023-06-19T06:27:55;9.07;;;4.97;;
63312;SDS011;49442;45.640;13.812;2023-06-19T06:30:21;8.60;;;4.70;;
63312;SDS011;49442;45.640;13.812;2023-06-19T06:32:48;12.70;;;5.03;;
63312;SDS011;49442;45.640;13.812;2023-06-19T06:35:15;8.02;;;4.50;;
63312;SDS011;49442;45.640;13.812;2023-06-19T06:37:40;13.07;;;5.47;;
63312;SDS011;49442;45.640;13.812;2023-06-19T06:40:07;16.30;;;5.40;;
63312;SDS011;49442;45.640;13.812;2023-06-19T06:42:36;13.02;;;4.63;;
63312;SDS011;49442;45.640;13.812;2023-06-19T06:45:03;11.50;;;4.90;;
63312;SDS011;49442;45.640;13.812;2023-06-19T06:47:32;10.35;;;4.18;;
63312;SDS011;49442;45.640;13.812;2023-06-19T06:49:59;11.85;;;4.43;;
63312;SDS011;49442;45.640;13.812;2023-06-19T06:52:25;12.57;;;3.97;;
63312;SDS011;49442;45.640;13.812;2023-06-19T06:54:50;9.00;;;4.90;;
63312;SDS011;49442;45.640;13.812;2023-06-19T06:57:16;7.40;;;4.60;;
63312;SDS011;49442;45.640;13.812;2023-06-19T06:59:42;17.40;;;4.40;;
63312;SDS011;49442;45.640;13.812;2023-06-19T07:02:08;8.65;;;4.28;;
63312;SDS011;49442;45.640;13.812;2023-06-19T07:04:33;9.35;;;4.20;;
63312;SDS011;49442;45.640;13.812;2023-06-19T07:06:59;7.32;;;4.45;;
63312;SDS011;49442;45.640;13.812;2023-06-19T07:09:25;5.53;;;4.13;;
63312;SDS011;49442;45.640;13.812;2023-06-19T07:11:50;6.05;;;4.68;;
63312;SDS011;49442;45.640;13.812;2023-06-19T07:14:16;8.98;;;3.78;;
63312;SDS011;49442;45.640;13.812;2023-06-19T07:16:43;9.80;;;4.20;;
63312;SDS011;49442;45.640;13.812;2023-06-19T07:19:10;8.75;;;4.75;;
63312;SDS011;49442;45.640;13.812;2023-06-19T07:21:37;5.40;;;3.75;;
63312;SDS011;49442;45.640;13.812;2023-06-19T07:24:03;13.77;;;4.30;;
63312;SDS011;49442;45.640;13.812;2023-06-19T07:26:30;8.55;;;4.63;;
63312;SDS011;49442;45.640;13.812;2023-06-19T07:28:55;10.88;;;3.92;;
63312;SDS011;49442;45.640;13.812;2023-06-19T07:31:21;8.25;;;4.18;;
63312;SDS011;49442;45.640;13.812;2023-06-19T07:33:47;4.85;;;3.80;;
63312;SDS011;49442;45.640;13.812;2023-06-19T07:36:12;6.45;;;3.58;;
63312;SDS011;49442;45.640;13.812;2023-06-19T07:38:42;8.23;;;4.13;;
63312;SDS011;49442;45.640;13.812;2023-06-19T07:41:08;8.27;;;4.45;;
63312;SDS011;49442;45.640;13.812;2023-06-19T07:43:34;7.35;;;3.75;;
63312;SDS011;49442;45.640;13.812;2023-06-19T07:46:01;6.13;;;4.32;;
63312;SDS011;49442;45.640;13.812;2023-06-19T07:48:27;9.20;;;4.00;;
63312;SDS011;49442;45.640;13.812;2023-06-19T07:50:53;7.18;;;4.20;;
63312;SDS011;49442;45.640;13.812;2023-06-19T07:53:19;10.48;;;4.38;;
63312;SDS011;49442;45.640;13.812;2023-06-19T07:55:45;7.43;;;4.75;;
63312;SDS011;49442;45.640;13.812;2023-06-19T07:58:11;7.65;;;4.28;;
63312;SDS011;49442;45.640;13.812;2023-06-19T08:00:37;9.57;;;4.72;;
63312;SDS011;49442;45.640;13.812;2023-06-19T08:03:03;10.57;;;4.93;;
63312;SDS011;49442;45.640;13.812;2023-06-19T08:05:29;8.30;;;4.82;;
63312;SDS011;49442;45.640;13.812;2023-06-19T08:07:55;10.90;;;5.32;;
63312;SDS011;49442;45.640;13.812;2023-06-19T08:10:21;7.57;;;4.68;;
63312;SDS011;49442;45.640;13.812;2023-06-19T08:12:47;11.48;;;5.22;;
63312;SDS011;49442;45.640;13.812;2023-06-19T08:15:13;9.65;;;4.93;;
63312;SDS011;49442;45.640;13.812;2023-06-19T08:17:39;6.15;;;4.50;;
63312;SDS011;49442;45.640;13.812;2023-06-19T08:20:05;6.68;;;4.70;;
63312;SDS011;49442;45.640;13.812;2023-06-19T08:22:32;7.75;;;5.00;;
63312;SDS011;49442;45.640;13.812;2023-06-19T08:24:58;8.63;;;4.78;;
63312;SDS011;49442;45.640;13.812;2023-06-19T08:27:23;8.05;;;4.88;;
63312;SDS011;49442;45.640;13.812;2023-06-19T08:29:49;8.52;;;4.72;;
63312;SDS011;49442;45.640;13.812;2023-06-19T08:32:15;6.88;;;4.55;;
63312;SDS011;49442;45.640;13.812;2023-06-19T08:34:41;6.20;;;4.63;;
63312;SDS011;49442;45.640;13.812;2023-06-19T08:37:07;7.03;;;4.65;;
63312;SDS011;49442;45.640;13.812;2023-06-19T08:39:33;6.03;;;4.38;;
63312;SDS011;49442;45.640;13.812;2023-06-19T08:42:03;9.10;;;4.45;;
63312;SDS011;49442;45.640;13.812;2023-06-19T08:44:29;7.88;;;4.53;;
63312;SDS011;49442;45.640;13.812;2023-06-19T08:46:55;6.43;;;4.35;;
63312;SDS011;49442;45.640;13.812;2023-06-19T08:49:22;8.30;;;4.65;;
63312;SDS011;49442;45.640;13.812;2023-06-19T08:51:48;5.43;;;4.57;;
63312;SDS011;49442;45.640;13.812;2023-06-19T08:54:14;7.22;;;4.45;;
63312;SDS011;49442;45.640;13.812;2023-06-19T08:56:40;9.90;;;4.72;;
63312;SDS011;49442;45.640;13.812;2023-06-19T08:59:17;7.65;;;4.78;;
63312;SDS011;49442;45.640;13.812;2023-06-19T09:01:46;5.57;;;4.18;;
63312;SDS011;49442;45.640;13.812;2023-06-19T09:04:20;6.72;;;4.00;;
63312;SDS011;49442;45.640;13.812;2023-06-19T09:06:51;6.28;;;4.15;;
63312;SDS011;49442;45.640;13.812;2023-06-19T09:09:24;7.72;;;4.15;;
63312;SDS011;49442;45.640;13.812;2023-06-19T09:12:24;11.13;;;3.85;;
63312;SDS011;49442;45.640;13.812;2023-06-19T09:14:43;7.55;;;4.78;;
63312;SDS011;49442;45.640;13.812;2023-06-19T09:17:11;6.47;;;4.45;;
63312;SDS011;49442;45.640;13.812;2023-06-19T09:19:49;7.82;;;4.05;;
63312;SDS011;49442;45.640;13.812;2023-06-19T09:22:17;6.03;;;4.18;;
63312;SDS011;49442;45.640;13.812;2023-06-19T09:24:44;6.78;;;4.25;;
63312;SDS011;49442;45.640;13.812;2023-06-19T09:27:13;6.40;;;3.83;;
63312;SDS011;49442;45.640;13.812;2023-06-19T09:29:44;6.78;;;4.38;;
63312;SDS011;49442;45.640;13.812;2023-06-19T09:32:25;6.07;;;3.85;;
63312;SDS011;49442;45.640;13.812;2023-06-19T09:34:52;7.28;;;3.70;;
63312;SDS011;49442;45.640;13.812;2023-06-19T09:37:21;5.45;;;3.90;;
63312;SDS011;49442;45.640;13.812;2023-06-19T09:39:53;7.40;;;3.65;;
63312;SDS011;49442;45.640;13.812;2023-06-19T09:42:38;6.15;;;3.67;;
63312;SDS011;49442;45.640;13.812;2023-06-19T09:45:08;5.90;;;3.40;;
63312;SDS011;49442;45.640;13.812;2023-06-19T09:47:43;6.28;;;3.72;;
63312;SDS011;49442;45.640;13.812;2023-06-19T09:50:14;5.40;;;3.80;;
63312;SDS011;49442;45.640;13.812;2023-06-19T09:52:42;9.23;;;4.53;;
63312;SDS011;49442;45.640;13.812;2023-06-19T09:55:09;6.45;;;3.88;;
63312;SDS011;49442;45.640;13.812;2023-06-19T09:57:38;4.82;;;3.88;;
63312;SDS011;49442;45.640;13.812;2023-06-19T10:00:05;4.72;;;3.80;;
63312;SDS011;49442;45.640;13.812;2023-06-19T10:02:41;7.60;;;4.25;;
63312;SDS011;49442;45.640;13.812;2023-06-19T10:05:09;6.55;;;3.80;;
63312;SDS011;49442;45.640;13.812;2023-06-19T10:07:38;7.25;;;4.63;;
63312;SDS011;49442;45.640;13.812;2023-06-19T10:10:06;13.38;;;4.22;;
63312;SDS011;49442;45.640;13.812;2023-06-19T10:12:43;6.35;;;4.18;;
63312;SDS011;49442;45.640;13.812;2023-06-19T10:17:53;8.10;;;3.72;;
63312;SDS011;49442;45.640;13.812;2023-06-19T10:20:31;6.88;;;4.35;;
63312;SDS011;49442;45.640;13.812;2023-06-19T10:23:09;4.88;;;4.20;;
63312;SDS011;49442;45.640;13.812;2023-06-19T10:25:44;4.88;;;3.80;;
63312;SDS011;49442;45.640;13.812;2023-06-19T10:28:24;5.70;;;4.30;;
63312;SDS011;49442;45.640;13.812;2023-06-19T10:31:02;8.40;;;4.38;;
63312;SDS011;49442;45.640;13.812;2023-06-19T10:33:29;7.70;;;4.13;;
63312;SDS011;49442;45.640;13.812;2023-06-19T10:36:00;4.70;;;3.90;;
63312;SDS011;49442;45.640;13.812;2023-06-19T10:38:27;7.10;;;4.07;;
63312;SDS011;49442;45.640;13.812;2023-06-19T10:40:53;6.57;;;3.58;;
63312;SDS011;49442;45.640;13.812;2023-06-19T10:43:22;10.18;;;4.50;;
63312;SDS011;49442;45.640;13.812;2023-06-19T10:45:50;5.05;;;4.15;;
63312;SDS011;49442;45.640;13.812;2023-06-19T10:48:22;6.43;;;4.22;;
63312;SDS011;49442;45.640;13.812;2023-06-19T10:50:49;5.68;;;3.83;;
63312;SDS011;49442;45.640;13.812;2023-06-19T10:53:29;4.32;;;3.65;;
63312;SDS011;49442;45.640;13.812;2023-06-19T10:55:59;7.00;;;3.83;;
63312;SDS011;49442;45.640;13.812;2023-06-19T10:58:26;6.93;;;3.30;;
63312;SDS011;49442;45.640;13.812;2023-06-19T11:00:53;8.35;;;3.70;;
63312;SDS011;49442;45.640;13.812;2023-06-19T11:03:19;5.63;;;3.80;;
63312;SDS011;49442;45.640;13.812;2023-06-19T11:05:46;7.28;;;3.80;;
63312;SDS011;49442;45.640;13.812;2023-06-19T11:08:19;5.57;;;3.50;;
63312;SDS011;49442;45.640;13.812;2023-06-19T11:10:46;5.45;;;4.10;;
63312;SDS011;49442;45.640;13.812;2023-06-19T11:13:15;4.68;;;3.90;;
63312;SDS011;49442;45.640;13.812;2023-06-19T11:15:45;4.45;;;3.50;;
63312;SDS011;49442;45.640;13.812;2023-06-19T11:18:14;4.65;;;3.63;;
63312;SDS011;49442;45.640;13.812;2023-06-19T11:20:48;5.45;;;4.00;;
63312;SDS011;49442;45.640;13.812;2023-06-19T11:23:15;4.15;;;3.75;;
63312;SDS011;49442;45.640;13.812;2023-06-19T11:25:42;6.82;;;3.90;;
63312;SDS011;49442;45.640;13.812;2023-06-19T11:28:14;5.63;;;4.38;;
63312;SDS011;49442;45.640;13.812;2023-06-19T11:30:47;6.20;;;3.95;;
63312;SDS011;49442;45.640;13.812;2023-06-19T11:33:18;4.90;;;3.83;;
63312;SDS011;49442;45.640;13.812;2023-06-19T11:35:51;4.85;;;4.05;;
63312;SDS011;49442;45.640;13.812;2023-06-19T11:38:21;9.85;;;4.13;;
63312;SDS011;49442;45.640;13.812;2023-06-19T11:40:48;5.40;;;3.77;;
63312;SDS011;49442;45.640;13.812;2023-06-19T11:43:27;5.97;;;4.10;;
63312;SDS011;49442;45.640;13.812;2023-06-19T11:45:53;5.43;;;4.63;;
63312;SDS011;49442;45.640;13.812;2023-06-19T11:48:26;4.70;;;4.18;;
63312;SDS011;49442;45.640;13.812;2023-06-19T11:50:52;5.13;;;4.10;;
63312;SDS011;49442;45.640;13.812;2023-06-19T11:53:19;5.55;;;4.00;;
63312;SDS011;49442;45.640;13.812;2023-06-19T11:55:46;7.45;;;3.78;;
63312;SDS011;49442;45.640;13.812;2023-06-19T11:58:12;5.43;;;4.30;;
63312;SDS011;49442;45.640;13.812;2023-06-19T12:00:40;5.53;;;3.97;;
63312;SDS011;49442;45.640;13.812;2023-06-19T12:03:06;6.82;;;4.32;;
63312;SDS011;49442;45.640;13.812;2023-06-19T12:05:32;8.68;;;4.78;;
63312;SDS011;49442;45.640;13.812;2023-06-19T12:07:57;10.35;;;4.25;;
63312;SDS011;49442;45.640;13.812;2023-06-19T12:10:23;11.23;;;5.25;;
63312;SDS011;49442;45.640;13.812;2023-06-19T12:12:49;7.97;;;4.82;;
63312;SDS011;49442;45.640;13.812;2023-06-19T12:15:14;7.70;;;4.85;;
63312;SDS011;49442;45.640;13.812;2023-06-19T12:17:40;6.35;;;4.65;;
63312;SDS011;49442;45.640;13.812;2023-06-19T12:20:06;16.42;;;4.57;;
63312;SDS011;49442;45.640;13.812;2023-06-19T12:22:33;5.65;;;4.75;;
63312;SDS011;49442;45.640;13.812;2023-06-19T12:24:59;6.55;;;3.97;;
63312;SDS011;49442;45.640;13.812;2023-06-19T12:27:25;8.90;;;4.60;;
63312;SDS011;49442;45.640;13.812;2023-06-19T12:29:51;5.35;;;4.80;;
63312;SDS011;49442;45.640;13.812;2023-06-19T12:32:17;5.45;;;4.35;;
63312;SDS011;49442;45.640;13.812;2023-06-19T12:34:43;10.30;;;4.82;;
63312;SDS011;49442;45.640;13.812;2023-06-19T12:37:14;8.68;;;5.40;;
63312;SDS011;49442;45.640;13.812;2023-06-19T12:42:08;4.90;;;4.22;;
63312;SDS011;49442;45.640;13.812;2023-06-19T12:44:37;6.18;;;4.45;;
63312;SDS011;49442;45.640;13.812;2023-06-19T12:47:06;6.22;;;4.40;;
63312;SDS011;49442;45.640;13.812;2023-06-19T12:49:32;10.60;;;4.68;;
63312;SDS011;49442;45.640;13.812;2023-06-19T12:51:58;6.57;;;4.35;;
63312;SDS011;49442;45.640;13.812;2023-06-19T12:54:25;7.30;;;4.43;;
63312;SDS011;49442;45.640;13.812;2023-06-19T12:56:51;6.20;;;4.45;;
63312;SDS011;49442;45.640;13.812;2023-06-19T12:59:16;7.68;;;4.25;;
63312;SDS011;49442;45.640;13.812;2023-06-19T13:01:42;9.15;;;4.57;;
63312;SDS011;49442;45.640;13.812;2023-06-19T13:04:08;6.03;;;4.10;;
63312;SDS011;49442;45.640;13.812;2023-06-19T13:06:35;7.53;;;5.30;;
63312;SDS011;49442;45.640;13.812;2023-06-19T13:09:01;10.38;;;5.22;;
63312;SDS011;49442;45.640;13.812;2023-06-19T13:11:27;8.73;;;4.50;;
63312;SDS011;49442;45.640;13.812;2023-06-19T13:13:53;6.43;;;5.18;;
63312;SDS011;49442;45.640;13.812;2023-06-19T13:16:19;7.50;;;4.88;;
63312;SDS011;49442;45.640;13.812;2023-06-19T13:18:45;9.85;;;5.97;;
63312;SDS011;49442;45.640;13.812;2023-06-19T13:21:11;6.32;;;5.00;;
63312;SDS011;49442;45.640;13.812;2023-06-19T13:23:37;10.68;;;5.60;;
63312;SDS011;49442;45.640;13.812;2023-06-19T13:26:03;7.63;;;5.55;;
63312;SDS011;49442;45.640;13.812;2023-06-19T13:28:30;8.30;;;5.53;;
63312;SDS011;49442;45.640;13.812;2023-06-19T13:30:56;7.35;;;5.45;;
63312;SDS011;49442;45.640;13.812;2023-06-19T13:33:22;7.50;;;5.78;;
63312;SDS011;49442;45.640;13.812;2023-06-19T13:35:48;12.45;;;5.55;;
63312;SDS011;49442;45.640;13.812;2023-06-19T13:38:13;9.93;;;6.88;;
63312;SDS011;49442;45.640;13.812;2023-06-19T13:40:40;10.45;;;6.78;;
63312;SDS011;49442;45.640;13.812;2023-06-19T13:43:07;11.13;;;7.30;;
63312;SDS011;49442;45.640;13.812;2023-06-19T13:45:32;16.90;;;7.38;;
63312;SDS011;49442;45.640;13.812;2023-06-19T13:47:59;13.98;;;8.65;;
63312;SDS011;49442;45.640;13.812;2023-06-19T13:50:25;10.70;;;8.70;;
63312;SDS011;49442;45.640;13.812;2023-06-19T13:52:51;11.82;;;8.82;;
63312;SDS011;49442;45.640;13.812;2023-06-19T13:55:17;16.70;;;9.13;;
63312;SDS011;49442;45.640;13.812;2023-06-19T13:57:44;12.43;;;10.40;;
63312;SDS011;49442;45.640;13.812;2023-06-19T14:00:10;12.48;;;10.00;;
63312;SDS011;49442;45.640;13.812;2023-06-19T14:02:37;16.98;;;10.07;;
63312;SDS011;49442;45.640;13.812;2023-06-19T14:05:04;15.73;;;10.27;;
63312;SDS011;49442;45.640;13.812;2023-06-19T14:07:31;16.85;;;11.50;;
63312;SDS011;49442;45.640;13.812;2023-06-19T14:09:57;14.07;;;11.82;;
63312;SDS011;49442;45.640;13.812;2023-06-19T14:12:23;15.05;;;10.85;;
63312;SDS011;49442;45.640;13.812;2023-06-19T14:14:48;16.40;;;11.93;;
63312;SDS011;49442;45.640;13.812;2023-06-19T14:17:14;15.23;;;9.70;;
63312;SDS011;49442;45.640;13.812;2023-06-19T14:19:40;14.93;;;10.45;;
63312;SDS011;49442;45.640;13.812;2023-06-19T14:22:06;13.30;;;10.38;;
63312;SDS011;49442;45.640;13.812;2023-06-19T14:24:31;13.20;;;9.77;;
63312;SDS011;49442;45.640;13.812;2023-06-19T14:26:57;17.35;;;11.05;;
63312;SDS011;49442;45.640;13.812;2023-06-19T14:29:23;11.38;;;9.88;;
63312;SDS011;49442;45.640;13.812;2023-06-19T14:31:50;13.20;;;9.48;;
63312;SDS011;49442;45.640;13.812;2023-06-19T14:34:17;12.18;;;8.23;;
63312;SDS011;49442;45.640;13.812;2023-06-19T14:36:43;12.55;;;9.05;;